sensor_id;sensor_type;location;lat;lon;timestamp;pressure;altitude;pressure_sealevel;temperature;humidity
12215;BME280;6170;42.206;24.142;2023-09-30T00:01:48;99008.84;;;19.69;55.93
12215;BME280;6170;42.206;24.142;2023-09-30T00:04:15;99014.44;;;19.85;55.53
12215;BME280;6170;42.206;24.142;2023-09-30T00:06:41;99012.75;;;19.79;55.74
12215;BME280;6170;42.206;24.142;2023-09-30T00:09:08;99031.47;;;19.75;56.19
12215;BME280;6170;42.206;24.142;2023-09-30T00:11:37;98998.88;;;19.53;56.23
12215;BME280;6170;42.206;24.142;2023-09-30T00:14:04;99004.75;;;19.67;56.41
12215;BME280;6170;42.206;24.142;2023-09-30T00:16:32;99009.16;;;19.73;55.86
12215;BME280;6170;42.206;24.142;2023-09-30T00:19:00;99001.25;;;19.71;56.19
12215;BME280;6170;42.206;24.142;2023-09-30T00:21:27;98998.47;;;19.66;56.13
12215;BME280;6170;42.206;24.142;2023-09-30T00:23:54;99110.84;;;20.21;56.41
12215;BME280;6170;42.206;24.142;2023-09-30T00:26:22;99030.47;;;19.81;56.12
12215;BME280;6170;42.206;24.142;2023-09-30T00:28:49;99006.22;;;19.53;56.78
12215;BME280;6170;42.206;24.142;2023-09-30T00:31:16;99003.00;;;19.56;56.40
12215;BME280;6170;42.206;24.142;2023-09-30T00:33:44;99000.16;;;19.46;56.81
12215;BME280;6170;42.206;24.142;2023-09-30T00:36:11;99008.84;;;19.69;56.27
12215;BME280;6170;42.206;24.142;2023-09-30T00:38:38;99018.50;;;19.82;56.50
12215;BME280;6170;42.206;24.142;2023-09-30T00:41:05;98990.25;;;19.61;56.59
12215;BME280;6170;42.206;24.142;2023-09-30T00:43:32;99002.19;;;19.55;56.34
12215;BME280;6170;42.206;24.142;2023-09-30T00:46:02;99018.16;;;19.52;56.76
12215;BME280;6170;42.206;24.142;2023-09-30T00:48:33;98957.09;;;18.94;57.02
12215;BME280;6170;42.206;24.142;2023-09-30T00:51:02;98997.75;;;19.49;56.80
12215;BME280;6170;42.206;24.142;2023-09-30T00:53:29;99005.44;;;19.57;56.48
12215;BME280;6170;42.206;24.142;2023-09-30T00:55:57;99002.66;;;19.30;57.12
12215;BME280;6170;42.206;24.142;2023-09-30T00:58:25;99047.47;;;19.71;57.11
12215;BME280;6170;42.206;24.142;2023-09-30T01:00:56;99009.22;;;19.51;56.76
12215;BME280;6170;42.206;24.142;2023-09-30T01:03:23;98996.09;;;19.48;56.40
12215;BME280;6170;42.206;24.142;2023-09-30T01:05:49;99003.91;;;19.66;56.07
12215;BME280;6170;42.206;24.142;2023-09-30T01:08:18;99003.03;;;19.61;56.21
12215;BME280;6170;42.206;24.142;2023-09-30T01:10:47;99024.03;;;19.65;56.20
12215;BME280;6170;42.206;24.142;2023-09-30T01:13:14;99008.22;;;19.62;56.37
12215;BME280;6170;42.206;24.142;2023-09-30T01:15:41;98998.81;;;19.26;56.82
12215;BME280;6170;42.206;24.142;2023-09-30T01:18:07;99000.06;;;19.41;57.00
12215;BME280;6170;42.206;24.142;2023-09-30T01:20:35;99014.72;;;19.40;57.52
12215;BME280;6170;42.206;24.142;2023-09-30T01:23:03;98992.28;;;18.84;58.41
12215;BME280;6170;42.206;24.142;2023-09-30T01:25:30;99002.66;;;19.09;57.91
12215;BME280;6170;42.206;24.142;2023-09-30T01:27:58;98994.13;;;19.00;58.21
12215;BME280;6170;42.206;24.142;2023-09-30T01:30:31;99007.09;;;19.15;57.68
12215;BME280;6170;42.206;24.142;2023-09-30T01:32:58;99002.16;;;19.12;57.49
12215;BME280;6170;42.206;24.142;2023-09-30T01:35:25;98994.78;;;19.07;57.64
12215;BME280;6170;42.206;24.142;2023-09-30T01:37:52;98998.25;;;19.24;56.97
12215;BME280;6170;42.206;24.142;2023-09-30T01:40:21;98985.09;;;19.16;57.17
12215;BME280;6170;42.206;24.142;2023-09-30T01:42:47;98999.13;;;19.08;57.85
12215;BME280;6170;42.206;24.142;2023-09-30T01:45:15;98997.59;;;19.39;57.12
12215;BME280;6170;42.206;24.142;2023-09-30T01:47:41;99003.47;;;19.31;56.90
12215;BME280;6170;42.206;24.142;2023-09-30T01:50:09;98991.69;;;19.20;56.96
12215;BME280;6170;42.206;24.142;2023-09-30T01:52:36;99002.72;;;19.14;56.99
12215;BME280;6170;42.206;24.142;2023-09-30T01:55:03;98996.59;;;19.23;57.10
12215;BME280;6170;42.206;24.142;2023-09-30T01:57:31;99104.97;;;20.07;56.54
12215;BME280;6170;42.206;24.142;2023-09-30T01:59:58;99000.31;;;19.61;56.11
12215;BME280;6170;42.206;24.142;2023-09-30T02:02:25;99007.69;;;19.60;55.99
12215;BME280;6170;42.206;24.142;2023-09-30T02:04:53;99004.13;;;19.60;56.12
12215;BME280;6170;42.206;24.142;2023-09-30T02:07:20;99003.41;;;19.69;56.09
12215;BME280;6170;42.206;24.142;2023-09-30T02:09:47;99021.84;;;19.89;56.18
12215;BME280;6170;42.206;24.142;2023-09-30T02:12:14;98992.84;;;19.73;55.80
12215;BME280;6170;42.206;24.142;2023-09-30T02:14:42;98996.41;;;19.73;56.25
12215;BME280;6170;42.206;24.142;2023-09-30T02:17:09;99008.84;;;19.69;56.05
12215;BME280;6170;42.206;24.142;2023-09-30T02:19:36;98993.69;;;19.73;56.00
12215;BME280;6170;42.206;24.142;2023-09-30T02:22:03;98996.41;;;19.79;55.80
12215;BME280;6170;42.206;24.142;2023-09-30T02:24:30;99005.09;;;19.76;56.03
12215;BME280;6170;42.206;24.142;2023-09-30T02:26:57;98930.38;;;19.29;55.83
12215;BME280;6170;42.206;24.142;2023-09-30T02:29:24;98987.41;;;19.73;55.63
12215;BME280;6170;42.206;24.142;2023-09-30T02:31:54;98971.06;;;19.68;55.94
12215;BME280;6170;42.206;24.142;2023-09-30T02:34:21;99092.56;;;20.43;56.03
12215;BME280;6170;42.206;24.142;2023-09-30T02:36:48;99000.44;;;19.71;55.98
12215;BME280;6170;42.206;24.142;2023-09-30T02:39:14;98959.41;;;19.46;56.03
12215;BME280;6170;42.206;24.142;2023-09-30T02:41:43;98984.88;;;19.66;55.69
12215;BME280;6170;42.206;24.142;2023-09-30T02:44:10;98980.16;;;19.57;55.85
12215;BME280;6170;42.206;24.142;2023-09-30T02:46:38;98978.38;;;19.67;55.84
12215;BME280;6170;42.206;24.142;2023-09-30T02:49:06;98989.97;;;19.58;55.96
12215;BME280;6170;42.206;24.142;2023-09-30T02:51:33;99098.31;;;20.19;56.27
12215;BME280;6170;42.206;24.142;2023-09-30T02:54:00;99000.31;;;19.61;56.22
12215;BME280;6170;42.206;24.142;2023-09-30T02:56:27;98984.06;;;19.66;55.98
12215;BME280;6170;42.206;24.142;2023-09-30T02:58:55;98986.53;;;19.67;56.57
12215;BME280;6170;42.206;24.142;2023-09-30T03:01:23;98990.97;;;19.79;56.27
12215;BME280;6170;42.206;24.142;2023-09-30T03:03:50;98995.34;;;19.80;55.99
12215;BME280;6170;42.206;24.142;2023-09-30T03:06:18;99099.56;;;20.34;56.72
12215;BME280;6170;42.206;24.142;2023-09-30T03:08:45;98998.28;;;19.73;56.28
12215;BME280;6170;42.206;24.142;2023-09-30T03:11:12;98976.50;;;19.68;56.32
12215;BME280;6170;42.206;24.142;2023-09-30T03:13:39;98993.63;;;19.68;56.45
12215;BME280;6170;42.206;24.142;2023-09-30T03:16:08;98993.41;;;19.75;56.31
12215;BME280;6170;42.206;24.142;2023-09-30T03:18:34;99004.84;;;19.77;56.36
12215;BME280;6170;42.206;24.142;2023-09-30T03:21:02;99003.22;;;19.76;56.52
12215;BME280;6170;42.206;24.142;2023-09-30T03:23:35;99003.81;;;19.83;56.77
12215;BME280;6170;42.206;24.142;2023-09-30T03:26:04;98998.06;;;19.80;56.70
12215;BME280;6170;42.206;24.142;2023-09-30T03:28:35;99001.06;;;19.78;56.68
12215;BME280;6170;42.206;24.142;2023-09-30T03:31:02;99003.50;;;19.80;56.44
12215;BME280;6170;42.206;24.142;2023-09-30T03:33:30;98986.72;;;19.61;56.20
12215;BME280;6170;42.206;24.142;2023-09-30T03:35:57;99015.22;;;19.80;56.43
12215;BME280;6170;42.206;24.142;2023-09-30T03:38:25;99024.75;;;19.83;56.52
12215;BME280;6170;42.206;24.142;2023-09-30T03:40:54;99012.44;;;19.75;56.56
12215;BME280;6170;42.206;24.142;2023-09-30T03:43:23;99015.63;;;19.67;57.00
12215;BME280;6170;42.206;24.142;2023-09-30T03:45:50;99017.25;;;19.68;56.85
12215;BME280;6170;42.206;24.142;2023-09-30T03:48:18;99039.16;;;19.83;56.97
12215;BME280;6170;42.206;24.142;2023-09-30T03:50:45;99015.56;;;19.62;56.65
12215;BME280;6170;42.206;24.142;2023-09-30T03:53:12;99012.22;;;19.55;57.32
12215;BME280;6170;42.206;24.142;2023-09-30T03:55:39;99017.34;;;19.51;57.22
12215;BME280;6170;42.206;24.142;2023-09-30T03:58:07;99019.88;;;19.58;57.12
12215;BME280;6170;42.206;24.142;2023-09-30T04:00:34;99007.81;;;19.49;57.48
12215;BME280;6170;42.206;24.142;2023-09-30T04:03:01;99003.56;;;19.58;57.29
12215;BME280;6170;42.206;24.142;2023-09-30T04:05:28;99026.03;;;19.75;57.16
12215;BME280;6170;42.206;24.142;2023-09-30T04:07:57;99118.41;;;20.18;57.44
12215;BME280;6170;42.206;24.142;2023-09-30T04:10:24;99018.28;;;19.62;57.15
12215;BME280;6170;42.206;24.142;2023-09-30T04:12:51;99007.84;;;19.54;56.95
12215;BME280;6170;42.206;24.142;2023-09-30T04:15:21;99005.31;;;19.25;57.37
12215;BME280;6170;42.206;24.142;2023-09-30T04:17:48;99035.28;;;19.52;57.51
12215;BME280;6170;42.206;24.142;2023-09-30T04:20:17;99012.00;;;19.18;57.96
12215;BME280;6170;42.206;24.142;2023-09-30T04:22:48;98970.19;;;18.97;57.58
12215;BME280;6170;42.206;24.142;2023-09-30T04:25:16;99009.44;;;19.28;57.33
12215;BME280;6170;42.206;24.142;2023-09-30T04:27:43;99014.81;;;19.23;57.45
12215;BME280;6170;42.206;24.142;2023-09-30T04:30:13;99000.16;;;19.24;57.92
12215;BME280;6170;42.206;24.142;2023-09-30T04:32:42;99032.44;;;19.42;57.77
12215;BME280;6170;42.206;24.142;2023-09-30T04:35:09;99013.66;;;19.19;57.40
12215;BME280;6170;42.206;24.142;2023-09-30T04:37:37;99022.63;;;19.19;57.91
12215;BME280;6170;42.206;24.142;2023-09-30T04:40:05;99034.44;;;19.30;57.75
12215;BME280;6170;42.206;24.142;2023-09-30T04:42:41;99022.88;;;19.18;58.32
12215;BME280;6170;42.206;24.142;2023-09-30T04:45:10;99013.59;;;19.36;57.62
12215;BME280;6170;42.206;24.142;2023-09-30T04:47:38;99032.00;;;19.28;58.03
12215;BME280;6170;42.206;24.142;2023-09-30T04:50:08;99014.81;;;19.23;57.91
12215;BME280;6170;42.206;24.142;2023-09-30T04:52:35;99041.31;;;19.54;57.68
12215;BME280;6170;42.206;24.142;2023-09-30T04:55:02;99041.47;;;19.69;57.77
12215;BME280;6170;42.206;24.142;2023-09-30T04:57:29;99028.38;;;19.66;57.70
12215;BME280;6170;42.206;24.142;2023-09-30T04:59:57;99039.22;;;19.88;57.65
12215;BME280;6170;42.206;24.142;2023-09-30T05:02:24;99048.03;;;20.00;56.29
12215;BME280;6170;42.206;24.142;2023-09-30T05:04:51;99031.69;;;19.95;56.96
12215;BME280;6170;42.206;24.142;2023-09-30T05:07:20;99093.69;;;20.47;56.77
12215;BME280;6170;42.206;24.142;2023-09-30T05:09:48;99053.44;;;20.22;56.75
12215;BME280;6170;42.206;24.142;2023-09-30T05:12:15;99048.59;;;20.56;55.82
12215;BME280;6170;42.206;24.142;2023-09-30T05:14:42;99051.22;;;21.20;54.73
12215;BME280;6170;42.206;24.142;2023-09-30T05:17:09;99069.78;;;21.90;53.55
12215;BME280;6170;42.206;24.142;2023-09-30T05:19:36;99046.13;;;22.41;51.65
12215;BME280;6170;42.206;24.142;2023-09-30T05:22:03;99055.41;;;22.30;52.64
12215;BME280;6170;42.206;24.142;2023-09-30T05:24:32;99059.50;;;22.68;50.81
12215;BME280;6170;42.206;24.142;2023-09-30T05:27:00;99027.84;;;22.82;50.21
12215;BME280;6170;42.206;24.142;2023-09-30T05:29:27;99043.00;;;23.34;49.35
12215;BME280;6170;42.206;24.142;2023-09-30T05:31:54;99056.00;;;23.72;48.24
12215;BME280;6170;42.206;24.142;2023-09-30T05:34:21;99059.41;;;23.34;49.09
12215;BME280;6170;42.206;24.142;2023-09-30T05:36:48;99077.13;;;23.56;49.50
12215;BME280;6170;42.206;24.142;2023-09-30T05:39:17;99049.56;;;23.33;48.57
12215;BME280;6170;42.206;24.142;2023-09-30T05:41:47;99058.56;;;23.38;48.92
12215;BME280;6170;42.206;24.142;2023-09-30T05:44:14;99063.41;;;23.71;48.57
12215;BME280;6170;42.206;24.142;2023-09-30T05:46:41;99064.47;;;23.76;48.41
12215;BME280;6170;42.206;24.142;2023-09-30T05:49:09;99058.41;;;23.84;48.47
12215;BME280;6170;42.206;24.142;2023-09-30T05:51:39;99062.81;;;23.80;48.43
12215;BME280;6170;42.206;24.142;2023-09-30T05:54:06;99143.91;;;24.64;47.92
12215;BME280;6170;42.206;24.142;2023-09-30T05:56:35;99070.25;;;24.23;48.23
12215;BME280;6170;42.206;24.142;2023-09-30T05:59:04;99038.72;;;23.77;48.15
12215;BME280;6170;42.206;24.142;2023-09-30T06:01:32;99065.53;;;23.85;48.53
12215;BME280;6170;42.206;24.142;2023-09-30T06:03:59;99065.44;;;23.95;48.53
12215;BME280;6170;42.206;24.142;2023-09-30T06:06:26;99075.38;;;24.30;48.21
12215;BME280;6170;42.206;24.142;2023-09-30T06:08:54;99078.22;;;24.53;47.65
12215;BME280;6170;42.206;24.142;2023-09-30T06:11:21;99080.28;;;24.72;46.84
12215;BME280;6170;42.206;24.142;2023-09-30T06:13:50;99063.66;;;24.58;47.81
12215;BME280;6170;42.206;24.142;2023-09-30T06:16:19;99079.38;;;25.10;47.26
12215;BME280;6170;42.206;24.142;2023-09-30T06:18:46;99074.09;;;25.19;46.53
12215;BME280;6170;42.206;24.142;2023-09-30T06:21:14;99078.47;;;25.20;46.61
12215;BME280;6170;42.206;24.142;2023-09-30T06:23:43;99075.63;;;25.01;46.92
12215;BME280;6170;42.206;24.142;2023-09-30T06:26:10;99082.72;;;25.60;45.65
12215;BME280;6170;42.206;24.142;2023-09-30T06:28:37;99071.41;;;25.66;45.18
12215;BME280;6170;42.206;24.142;2023-09-30T06:31:06;99057.13;;;25.64;45.29
12215;BME280;6170;42.206;24.142;2023-09-30T06:33:36;99071.00;;;26.15;44.67
12215;BME280;6170;42.206;24.142;2023-09-30T06:36:10;99073.44;;;26.17;45.53
12215;BME280;6170;42.206;24.142;2023-09-30T06:38:39;99079.25;;;26.15;43.88
12215;BME280;6170;42.206;24.142;2023-09-30T06:41:07;99076.34;;;26.25;43.83
12215;BME280;6170;42.206;24.142;2023-09-30T06:43:34;99071.50;;;26.55;43.18
12215;BME280;6170;42.206;24.142;2023-09-30T06:46:05;99078.25;;;26.62;42.79
12215;BME280;6170;42.206;24.142;2023-09-30T06:48:36;99071.72;;;26.58;42.83
12215;BME280;6170;42.206;24.142;2023-09-30T06:51:03;99069.53;;;26.42;43.15
12215;BME280;6170;42.206;24.142;2023-09-30T06:53:30;99073.97;;;26.89;42.38
12215;BME280;6170;42.206;24.142;2023-09-30T06:55:57;99073.47;;;26.87;42.59
12215;BME280;6170;42.206;24.142;2023-09-30T06:58:24;99072.81;;;27.36;42.78
12215;BME280;6170;42.206;24.142;2023-09-30T07:00:51;99065.72;;;27.35;41.03
12215;BME280;6170;42.206;24.142;2023-09-30T07:03:19;99151.88;;;27.62;41.27
12215;BME280;6170;42.206;24.142;2023-09-30T07:05:47;99072.81;;;27.36;41.69
12215;BME280;6170;42.206;24.142;2023-09-30T07:08:16;99078.53;;;27.25;41.95
12215;BME280;6170;42.206;24.142;2023-09-30T07:10:44;99065.72;;;27.35;42.30
12215;BME280;6170;42.206;24.142;2023-09-30T07:13:11;99080.56;;;27.88;40.95
12215;BME280;6170;42.206;24.142;2023-09-30T07:15:38;99075.25;;;27.23;41.49
12215;BME280;6170;42.206;24.142;2023-09-30T07:18:06;99089.91;;;27.65;41.60
12215;BME280;6170;42.206;24.142;2023-09-30T07:20:33;99090.66;;;27.93;41.12
12215;BME280;6170;42.206;24.142;2023-09-30T07:23:01;99089.19;;;28.36;40.92
12215;BME280;6170;42.206;24.142;2023-09-30T07:25:29;99084.78;;;28.35;41.16
12215;BME280;6170;42.206;24.142;2023-09-30T07:27:57;99081.63;;;28.28;40.07
12215;BME280;6170;42.206;24.142;2023-09-30T07:30:26;99092.94;;;28.40;40.80
12215;BME280;6170;42.206;24.142;2023-09-30T07:32:53;99084.31;;;28.20;40.04
12215;BME280;6170;42.206;24.142;2023-09-30T07:35:20;99082.88;;;28.58;40.21
12215;BME280;6170;42.206;24.142;2023-09-30T07:37:47;99094.72;;;28.58;39.85
12215;BME280;6170;42.206;24.142;2023-09-30T07:40:18;99095.00;;;28.71;40.24
12215;BME280;6170;42.206;24.142;2023-09-30T07:42:46;99086.75;;;29.01;39.49
12215;BME280;6170;42.206;24.142;2023-09-30T07:45:13;99082.41;;;29.09;39.27
12215;BME280;6170;42.206;24.142;2023-09-30T07:47:43;99150.28;;;29.72;39.03
12215;BME280;6170;42.206;24.142;2023-09-30T07:50:12;99083.91;;;29.15;38.76
12215;BME280;6170;42.206;24.142;2023-09-30T07:52:39;99068.16;;;29.16;39.77
12215;BME280;6170;42.206;24.142;2023-09-30T07:55:08;99094.44;;;29.44;38.77
12215;BME280;6170;42.206;24.142;2023-09-30T07:57:36;99086.31;;;29.39;39.10
12215;BME280;6170;42.206;24.142;2023-09-30T08:00:04;99082.84;;;29.25;39.88
12215;BME280;6170;42.206;24.142;2023-09-30T08:02:34;99081.13;;;28.84;40.02
12215;BME280;6170;42.206;24.142;2023-09-30T08:05:02;99104.56;;;29.26;39.96
12215;BME280;6170;42.206;24.142;2023-09-30T08:07:29;99068.22;;;28.93;39.01
12215;BME280;6170;42.206;24.142;2023-09-30T08:09:56;99072.31;;;29.05;37.32
12215;BME280;6170;42.206;24.142;2023-09-30T08:12:23;99083.81;;;29.29;38.47
12215;BME280;6170;42.206;24.142;2023-09-30T08:14:52;99093.66;;;29.52;39.14
12215;BME280;6170;42.206;24.142;2023-09-30T08:17:19;99063.47;;;29.47;38.49
12215;BME280;6170;42.206;24.142;2023-09-30T08:19:46;99077.00;;;29.66;38.84
12215;BME280;6170;42.206;24.142;2023-09-30T08:22:13;99007.75;;;29.45;37.26
12215;BME280;6170;42.206;24.142;2023-09-30T08:24:40;99056.47;;;29.98;37.75
12215;BME280;6170;42.206;24.142;2023-09-30T08:27:07;99066.91;;;29.61;37.29
12215;BME280;6170;42.206;24.142;2023-09-30T08:29:34;99062.97;;;30.19;36.82
12215;BME280;6170;42.206;24.142;2023-09-30T08:32:04;99075.19;;;30.18;36.65
12215;BME280;6170;42.206;24.142;2023-09-30T08:34:32;99127.25;;;30.50;37.35
12215;BME280;6170;42.206;24.142;2023-09-30T08:36:59;99033.72;;;29.44;36.56
12215;BME280;6170;42.206;24.142;2023-09-30T08:39:27;99079.38;;;29.89;37.29
12215;BME280;6170;42.206;24.142;2023-09-30T08:41:55;99075.50;;;30.25;38.08
12215;BME280;6170;42.206;24.142;2023-09-30T08:44:23;99051.84;;;29.84;35.94
12215;BME280;6170;42.206;24.142;2023-09-30T08:46:50;99056.34;;;29.55;36.59
12215;BME280;6170;42.206;24.142;2023-09-30T08:49:20;99077.13;;;30.00;38.19
12215;BME280;6170;42.206;24.142;2023-09-30T08:51:48;99062.91;;;29.84;35.55
12215;BME280;6170;42.206;24.142;2023-09-30T08:54:16;99023.38;;;28.88;36.00
12215;BME280;6170;42.206;24.142;2023-09-30T08:56:44;99048.00;;;29.94;38.40
12215;BME280;6170;42.206;24.142;2023-09-30T08:59:15;99036.09;;;29.76;36.10
12215;BME280;6170;42.206;24.142;2023-09-30T09:01:42;99041.50;;;29.90;35.48
12215;BME280;6170;42.206;24.142;2023-09-30T09:04:10;99017.31;;;30.21;34.07
12215;BME280;6170;42.206;24.142;2023-09-30T09:06:38;99090.75;;;31.00;35.46
12215;BME280;6170;42.206;24.142;2023-09-30T09:09:15;99052.41;;;29.95;33.88
12215;BME280;6170;42.206;24.142;2023-09-30T09:11:42;99026.56;;;30.25;35.02
12215;BME280;6170;42.206;24.142;2023-09-30T09:14:09;99029.50;;;30.12;33.77
12215;BME280;6170;42.206;24.142;2023-09-30T09:16:36;99028.50;;;29.99;34.34
12215;BME280;6170;42.206;24.142;2023-09-30T09:19:13;99039.88;;;29.89;35.36
12215;BME280;6170;42.206;24.142;2023-09-30T09:21:55;99029.16;;;30.56;35.62
12215;BME280;6170;42.206;24.142;2023-09-30T09:24:30;99019.88;;;30.44;35.42
12215;BME280;6170;42.206;24.142;2023-09-30T09:27:07;99020.88;;;30.56;33.28
12215;BME280;6170;42.206;24.142;2023-09-30T09:29:35;99017.50;;;29.42;33.96
12215;BME280;6170;42.206;24.142;2023-09-30T09:32:11;99002.88;;;29.02;33.97
12215;BME280;6170;42.206;24.142;2023-09-30T09:34:39;99005.41;;;28.99;34.21
12215;BME280;6170;42.206;24.142;2023-09-30T09:37:15;99007.63;;;29.67;34.93
12215;BME280;6170;42.206;24.142;2023-09-30T09:39:50;98993.81;;;29.67;33.94
12215;BME280;6170;42.206;24.142;2023-09-30T09:42:27;99004.63;;;29.95;35.08
12215;BME280;6170;42.206;24.142;2023-09-30T09:44:57;98988.19;;;30.24;33.20
12215;BME280;6170;42.206;24.142;2023-09-30T09:47:24;99001.44;;;30.82;34.55
12215;BME280;6170;42.206;24.142;2023-09-30T09:49:52;98980.06;;;30.53;34.60
12215;BME280;6170;42.206;24.142;2023-09-30T09:52:22;98988.44;;;30.83;33.31
12215;BME280;6170;42.206;24.142;2023-09-30T09:54:50;98989.31;;;30.57;33.26
12215;BME280;6170;42.206;24.142;2023-09-30T09:57:18;98996.59;;;29.84;32.84
12215;BME280;6170;42.206;24.142;2023-09-30T09:59:46;98944.94;;;30.02;34.93
12215;BME280;6170;42.206;24.142;2023-09-30T10:02:16;98967.03;;;30.28;34.25
12215;BME280;6170;42.206;24.142;2023-09-30T10:04:44;99024.78;;;30.21;33.69
12215;BME280;6170;42.206;24.142;2023-09-30T10:07:14;99040.84;;;30.36;34.03
12215;BME280;6170;42.206;24.142;2023-09-30T10:09:47;98945.75;;;29.85;32.69
12215;BME280;6170;42.206;24.142;2023-09-30T10:12:18;98948.47;;;30.37;34.46
12215;BME280;6170;42.206;24.142;2023-09-30T10:14:46;98930.28;;;30.53;33.27
12215;BME280;6170;42.206;24.142;2023-09-30T10:17:14;98959.72;;;31.04;33.65
12215;BME280;6170;42.206;24.142;2023-09-30T10:20:04;98948.00;;;31.37;33.95
12215;BME280;6170;42.206;24.142;2023-09-30T10:22:32;98946.09;;;31.58;34.75
12215;BME280;6170;42.206;24.142;2023-09-30T10:25:02;98931.13;;;31.50;33.72
12215;BME280;6170;42.206;24.142;2023-09-30T10:27:48;99018.72;;;32.14;33.32
12215;BME280;6170;42.206;24.142;2023-09-30T10:30:15;98938.69;;;31.41;31.46
12215;BME280;6170;42.206;24.142;2023-09-30T10:33:07;99011.59;;;31.83;33.46
12215;BME280;6170;42.206;24.142;2023-09-30T10:35:45;98918.06;;;30.37;30.75
12215;BME280;6170;42.206;24.142;2023-09-30T10:38:40;98990.19;;;31.34;32.63
12215;BME280;6170;42.206;24.142;2023-09-30T10:41:10;99000.75;;;31.70;32.34
12215;BME280;6170;42.206;24.142;2023-09-30T10:43:41;98900.13;;;30.98;32.32
12215;BME280;6170;42.206;24.142;2023-09-30T10:49:17;98908.25;;;31.83;32.68
12215;BME280;6170;42.206;24.142;2023-09-30T10:51:57;98902.22;;;32.01;31.10
12215;BME280;6170;42.206;24.142;2023-09-30T10:54:26;98912.94;;;31.41;32.32
12215;BME280;6170;42.206;24.142;2023-09-30T10:56:56;98943.66;;;31.27;31.16
12215;BME280;6170;42.206;24.142;2023-09-30T10:59:25;98964.06;;;31.43;32.52
12215;BME280;6170;42.206;24.142;2023-09-30T11:01:53;98884.34;;;30.99;30.33
12215;BME280;6170;42.206;24.142;2023-09-30T11:04:20;98883.47;;;31.15;31.06
12215;BME280;6170;42.206;24.142;2023-09-30T11:06:48;98880.41;;;31.08;29.59
12215;BME280;6170;42.206;24.142;2023-09-30T11:09:16;98903.91;;;31.02;32.04
12215;BME280;6170;42.206;24.142;2023-09-30T11:11:44;98871.47;;;31.03;34.66
12215;BME280;6170;42.206;24.142;2023-09-30T11:14:20;98871.75;;;30.25;32.62
12215;BME280;6170;42.206;24.142;2023-09-30T11:16:47;98894.53;;;30.22;33.49
12215;BME280;6170;42.206;24.142;2023-09-30T11:19:15;98925.28;;;30.12;33.74
12215;BME280;6170;42.206;24.142;2023-09-30T11:21:42;98940.53;;;30.53;33.50
12215;BME280;6170;42.206;24.142;2023-09-30T11:24:10;98916.16;;;30.29;33.25
12215;BME280;6170;42.206;24.142;2023-09-30T11:26:38;98906.44;;;29.97;34.63
12215;BME280;6170;42.206;24.142;2023-09-30T11:29:07;98889.03;;;29.88;32.11
12215;BME280;6170;42.206;24.142;2023-09-30T11:31:38;98953.38;;;30.23;33.00
12215;BME280;6170;42.206;24.142;2023-09-30T11:34:05;98875.75;;;29.90;32.55
12215;BME280;6170;42.206;24.142;2023-09-30T11:36:34;98870.03;;;30.04;32.72
12215;BME280;6170;42.206;24.142;2023-09-30T11:39:02;98936.34;;;30.76;31.88
12215;BME280;6170;42.206;24.142;2023-09-30T11:41:33;98910.25;;;31.32;35.35
12215;BME280;6170;42.206;24.142;2023-09-30T11:44:02;98883.31;;;31.12;32.85
12215;BME280;6170;42.206;24.142;2023-09-30T11:46:32;98946.09;;;31.79;31.30
12215;BME280;6170;42.206;24.142;2023-09-30T11:49:02;98853.09;;;31.48;32.39
12215;BME280;6170;42.206;24.142;2023-09-30T11:51:34;98850.94;;;31.54;32.82
12215;BME280;6170;42.206;24.142;2023-09-30T11:54:09;98815.00;;;31.04;31.17
12215;BME280;6170;42.206;24.142;2023-09-30T11:56:37;98903.72;;;31.78;30.67
12215;BME280;6170;42.206;24.142;2023-09-30T11:59:04;98844.53;;;31.62;31.38
12215;BME280;6170;42.206;24.142;2023-09-30T12:01:36;98920.59;;;31.64;30.88
12215;BME280;6170;42.206;24.142;2023-09-30T12:04:05;98902.91;;;31.07;32.18
12215;BME280;6170;42.206;24.142;2023-09-30T12:06:32;98857.38;;;30.58;32.25
12215;BME280;6170;42.206;24.142;2023-09-30T12:08:59;98926.66;;;30.99;31.66
12215;BME280;6170;42.206;24.142;2023-09-30T12:11:28;98835.84;;;30.17;32.37
12215;BME280;6170;42.206;24.142;2023-09-30T12:13:55;98837.72;;;30.51;29.65
12215;BME280;6170;42.206;24.142;2023-09-30T12:16:22;98842.81;;;30.31;33.09
12215;BME280;6170;42.206;24.142;2023-09-30T12:18:49;98836.66;;;30.26;32.15
12215;BME280;6170;42.206;24.142;2023-09-30T12:21:18;98779.69;;;29.78;31.10
12215;BME280;6170;42.206;24.142;2023-09-30T12:23:45;98828.31;;;30.34;31.03
12215;BME280;6170;42.206;24.142;2023-09-30T12:26:14;98825.69;;;30.47;31.06
12215;BME280;6170;42.206;24.142;2023-09-30T12:28:43;98828.47;;;30.47;30.47
12215;BME280;6170;42.206;24.142;2023-09-30T12:31:10;98805.47;;;30.17;29.73
12215;BME280;6170;42.206;24.142;2023-09-30T12:33:36;98737.47;;;29.78;31.55
12215;BME280;6170;42.206;24.142;2023-09-30T12:36:04;98814.69;;;30.67;29.80
12215;BME280;6170;42.206;24.142;2023-09-30T12:38:32;98873.94;;;31.04;29.03
12215;BME280;6170;42.206;24.142;2023-09-30T12:40:59;98806.28;;;30.55;30.99
12215;BME280;6170;42.206;24.142;2023-09-30T12:43:26;98815.91;;;29.85;30.57
12215;BME280;6170;42.206;24.142;2023-09-30T12:45:53;98819.03;;;29.58;32.17
12215;BME280;6170;42.206;24.142;2023-09-30T12:48:20;98801.19;;;29.56;32.93
12215;BME280;6170;42.206;24.142;2023-09-30T12:50:47;98864.66;;;30.07;33.14
12215;BME280;6170;42.206;24.142;2023-09-30T12:53:14;98793.22;;;29.54;33.54
12215;BME280;6170;42.206;24.142;2023-09-30T12:55:42;98778.06;;;28.91;33.04
12215;BME280;6170;42.206;24.142;2023-09-30T12:58:11;98869.84;;;29.66;31.75
12215;BME280;6170;42.206;24.142;2023-09-30T13:00:38;98788.75;;;28.76;31.84
12215;BME280;6170;42.206;24.142;2023-09-30T13:03:05;98797.88;;;28.93;34.18
12215;BME280;6170;42.206;24.142;2023-09-30T13:05:33;98869.66;;;29.28;32.93
12215;BME280;6170;42.206;24.142;2023-09-30T13:08:00;98842.38;;;28.70;33.65
12215;BME280;6170;42.206;24.142;2023-09-30T13:10:28;98869.09;;;28.91;32.77